Time;durP1;ratioP1;P1;durP2;ratioP2;P2;SDS_P1;SDS_P2;PMS_P1;PMS_P2;Temp;Humidity;BMP_temperature;BMP_pressure;BME280_temperature;BME280_humidity;BME280_pressure;Samples;Min_cycle;Max_cycle;Signal;HPM_P1;HPM_P2
2024/01/27 00:01:14;;;;;;;18.42;1.90;;;;;;;1.59;58.98;103013.38;4944864;28;20942;-71
2024/01/27 00:03:39;;;;;;;18.38;2.25;;;;;;;1.49;59.16;103012.22;4939507;28;20066;-69
2024/01/27 00:06:05;;;;;;;16.90;1.40;;;;;;;1.83;57.90;103002.97;4940549;28;20039;-71
2024/01/27 00:08:30;;;;;;;21.88;1.65;;;;;;;1.57;59.11;103004.72;4953961;28;20035;-72
2024/01/27 00:10:56;;;;;;;19.60;1.35;;;;;;;1.59;58.96;103008.22;4941532;28;20043;-70
2024/01/27 00:13:21;;;;;;;22.60;2.97;;;;;;;1.49;58.86;103013.09;4944072;28;20226;-68
2024/01/27 00:15:47;;;;;;;21.50;2.40;;;;;;;1.83;58.20;103014.16;4940601;28;20210;-69
2024/01/27 00:18:12;;;;;;;22.85;1.85;;;;;;;1.57;58.94;103017.59;4942627;28;20049;-71
2024/01/27 00:20:38;;;;;;;13.73;1.80;;;;;;;1.54;58.80;103025.25;4911693;28;20035;-70
2024/01/27 00:23:03;;;;;;;16.67;1.40;;;;;;;1.44;59.58;103021.47;4918930;28;20053;-69
2024/01/27 00:25:29;;;;;;;16.42;1.38;;;;;;;1.54;59.82;103026.13;4915332;28;20062;-69
2024/01/27 00:27:55;;;;;;;10.10;2.05;;;;;;;1.41;59.98;103029.13;4921067;28;20226;-72
2024/01/27 00:30:20;;;;;;;17.02;1.95;;;;;;;1.70;59.61;103024.91;4920402;28;20054;-67
2024/01/27 00:32:46;;;;;;;25.70;1.35;;;;;;;1.65;59.27;103029.06;4949851;28;20119;-67
2024/01/27 00:35:14;;;;;;;21.23;2.33;;;;;;;1.54;59.79;103030.41;4943540;28;20057;-66
2024/01/27 00:37:41;;;;;;;15.00;2.17;;;;;;;1.49;59.57;103038.88;4938910;28;20038;-69
2024/01/27 00:40:11;;;;;;;8.52;1.10;;;;;;;1.71;59.10;103040.44;4944616;28;20109;-69
2024/01/27 00:42:37;;;;;;;12.88;1.85;;;;;;;1.52;59.19;103041.53;4939625;28;20126;-69
2024/01/27 00:45:04;;;;;;;16.73;1.58;;;;;;;1.44;59.59;103037.84;4943703;28;20117;-68
2024/01/27 00:47:30;;;;;;;29.75;2.55;;;;;;;1.68;59.46;103039.44;4955658;28;20050;-69
2024/01/27 00:49:55;;;;;;;12.23;1.73;;;;;;;1.59;59.65;103045.19;4934668;28;20047;-70
2024/01/27 00:52:21;;;;;;;14.32;2.35;;;;;;;1.57;59.82;103033.06;4935347;28;20043;-71
2024/01/27 00:54:46;;;;;;;23.13;2.38;;;;;;;1.27;61.17;103028.66;4932324;28;20043;-67
2024/01/27 00:57:12;;;;;;;18.88;2.13;;;;;;;1.56;60.41;103036.50;4941788;28;20645;-70
2024/01/27 00:59:38;;;;;;;23.27;2.10;;;;;;;1.47;60.70;103048.25;4932279;28;20487;-68
2024/01/27 01:02:04;;;;;;;25.70;2.88;;;;;;;1.45;61.60;103038.72;4937988;28;20998;-69
2024/01/27 01:04:30;;;;;;;19.77;2.63;;;;;;;1.47;61.20;103045.66;4949712;28;20045;-69
2024/01/27 01:06:58;;;;;;;18.58;2.58;;;;;;;1.40;61.10;103041.16;4932936;28;20034;-70
2024/01/27 01:09:24;;;;;;;23.73;2.70;;;;;;;1.46;60.83;103036.19;4938885;28;20100;-69
2024/01/27 01:11:49;;;;;;;25.58;2.75;;;;;;;1.48;61.12;103031.97;4933838;28;20016;-70
2024/01/27 01:14:15;;;;;;;27.75;3.08;;;;;;;0.90;63.05;103024.81;4936213;28;20070;-71
2024/01/27 01:16:40;;;;;;;21.33;2.25;;;;;;;1.11;62.46;103025.56;4930582;28;20152;-71
2024/01/27 01:19:06;;;;;;;14.75;1.60;;;;;;;1.29;61.86;103034.72;4940510;28;20066;-71
2024/01/27 01:21:31;;;;;;;22.77;2.95;;;;;;;1.32;62.13;103039.97;4954551;28;20101;-69
2024/01/27 01:23:57;;;;;;;16.55;2.88;;;;;;;1.34;62.01;103038.31;4949118;28;20039;-71
2024/01/27 01:26:24;;;;;;;26.85;2.10;;;;;;;1.57;60.98;103033.06;4940590;28;20066;-72
2024/01/27 01:28:50;;;;;;;18.48;1.35;;;;;;;1.39;61.63;103031.59;4936482;28;20039;-72
2024/01/27 01:31:16;;;;;;;20.33;2.67;;;;;;;1.29;62.16;103030.44;4953268;28;20047;-72
2024/01/27 01:33:41;;;;;;;41.30;3.60;;;;;;;1.45;62.09;103025.84;4951725;28;20026;-72
2024/01/27 01:36:07;;;;;;;20.02;2.70;;;;;;;0.94;63.60;103034.38;4928112;28;20545;-72
2024/01/27 01:38:32;;;;;;;34.70;3.67;;;;;;;1.25;62.86;103032.88;4954447;28;20717;-70
2024/01/27 01:40:58;;;;;;;27.02;3.70;;;;;;;1.25;62.44;103032.88;4930851;28;20759;-70
2024/01/27 01:43:23;;;;;;;19.02;1.63;;;;;;;1.32;62.59;103030.53;4940852;28;20034;-70
2024/01/27 01:45:50;;;;;;;22.00;3.00;;;;;;;1.24;62.48;103026.84;4934705;28;20054;-69
2024/01/27 01:48:16;;;;;;;20.88;1.85;;;;;;;1.64;60.95;103037.59;4940446;28;20043;-70
2024/01/27 01:50:42;;;;;;;17.30;2.03;;;;;;;1.36;62.12;103040.97;4942125;28;20062;-70
2024/01/27 01:53:08;;;;;;;26.08;3.90;;;;;;;1.58;62.06;103052.88;4936563;28;20410;-66
2024/01/27 01:55:34;;;;;;;19.48;2.15;;;;;;;1.17;63.13;103039.44;4934306;28;20051;-69
2024/01/27 01:58:00;;;;;;;29.23;2.65;;;;;;;1.44;62.23;103040.44;4932077;28;20880;-69
2024/01/27 02:00:25;;;;;;;21.65;2.45;;;;;;;1.44;61.80;103040.44;4936694;28;20697;-65
2024/01/27 02:02:50;;;;;;;21.35;2.17;;;;;;;1.38;62.07;103029.88;4930172;28;20610;-70
2024/01/27 02:05:16;;;;;;;20.40;2.25;;;;;;;1.55;62.00;103034.72;4919022;28;20798;-71
2024/01/27 02:07:42;;;;;;;23.00;4.85;;;;;;;1.82;60.35;103040.78;4912895;28;20352;-70
2024/01/27 02:10:15;;;;;;;21.42;2.60;;;;;;;1.50;62.10;103037.16;4917245;28;20667;-71
2024/01/27 02:12:41;;;;;;;22.83;3.40;;;;;;;1.57;61.46;103035.66;4918748;28;20230;-68
2024/01/27 02:15:13;;;;;;;22.25;2.67;;;;;;;1.65;61.38;103050.53;4922676;28;20050;-69
2024/01/27 02:17:40;;;;;;;26.52;2.42;;;;;;;1.37;62.32;103048.72;4936566;28;20035;-68
2024/01/27 02:20:08;;;;;;;22.42;1.92;;;;;;;1.54;61.42;103061.34;4948814;28;20541;-68
2024/01/27 02:22:34;;;;;;;22.15;2.10;;;;;;;1.51;61.48;103057.84;4923082;28;20090;-72
2024/01/27 02:25:00;;;;;;;24.17;2.45;;;;;;;1.50;61.02;103060.34;4934081;28;20046;-66
2024/01/27 02:27:26;;;;;;;31.20;2.50;;;;;;;1.13;62.69;103053.03;4938746;28;20498;-68
2024/01/27 02:29:51;;;;;;;16.33;2.78;;;;;;;1.21;62.86;103067.94;4930274;28;20039;-68
2024/01/27 02:32:17;;;;;;;17.13;2.08;;;;;;;1.73;60.56;103066.28;4954040;28;20129;-68
2024/01/27 02:34:42;;;;;;;17.60;2.33;;;;;;;1.20;62.26;103062.75;4936468;28;20137;-69
2024/01/27 02:37:08;;;;;;;30.17;2.03;;;;;;;1.12;61.57;103070.22;4933763;28;20061;-71
2024/01/27 02:39:34;;;;;;;19.88;2.40;;;;;;;1.41;60.22;103070.34;4934560;28;20035;-69
2024/01/27 02:42:00;;;;;;;18.95;1.42;;;;;;;1.01;61.67;103080.13;4933126;28;20626;-67
2024/01/27 02:44:25;;;;;;;15.55;2.03;;;;;;;1.02;60.67;103070.72;4939205;28;20039;-70
2024/01/27 02:46:51;;;;;;;16.08;2.70;;;;;;;0.98;61.15;103080.03;4933122;28;20031;-67
2024/01/27 02:49:16;;;;;;;16.65;2.80;;;;;;;0.72;61.61;103070.50;4940127;28;20118;-69
2024/01/27 02:51:42;;;;;;;20.85;2.78;;;;;;;0.42;62.78;103078.84;4938689;28;20047;-73
2024/01/27 02:54:07;;;;;;;7.97;1.40;;;;;;;0.50;62.54;103074.84;4936877;28;20047;-73
2024/01/27 02:56:33;;;;;;;18.27;1.17;;;;;;;0.80;61.51;103076.81;4937886;28;20229;-72
2024/01/27 02:58:58;;;;;;;16.00;1.48;;;;;;;0.81;61.81;103070.81;4947781;28;20063;-71
2024/01/27 03:01:24;;;;;;;11.80;1.40;;;;;;;0.75;61.77;103070.59;4936848;28;20039;-71
2024/01/27 03:03:50;;;;;;;22.33;1.90;;;;;;;1.05;60.22;103066.53;4947448;28;20044;-70
2024/01/27 03:06:15;;;;;;;25.35;3.33;;;;;;;0.96;60.61;103062.78;4938425;28;20575;-72
2024/01/27 03:08:40;;;;;;;23.45;2.85;;;;;;;1.14;59.67;103065.13;4938749;28;20041;-71
2024/01/27 03:11:06;;;;;;;23.50;2.03;;;;;;;0.82;60.95;103070.03;4932453;28;20140;-69
2024/01/27 03:13:31;;;;;;;13.00;1.77;;;;;;;0.84;60.86;103066.69;4935391;28;20114;-69
2024/01/27 03:15:57;;;;;;;18.80;1.05;;;;;;;1.05;60.72;103076.84;4935372;28;20070;-69
2024/01/27 03:18:24;;;;;;;22.23;2.95;;;;;;;0.79;61.26;103077.63;4941824;28;20094;-71
2024/01/27 03:20:49;;;;;;;28.15;2.97;;;;;;;0.86;61.17;103077.03;4940542;28;20884;-69
2024/01/27 03:23:15;;;;;;;24.80;2.30;;;;;;;0.95;61.10;103081.59;4940689;28;20093;-69
2024/01/27 03:25:41;;;;;;;12.60;1.73;;;;;;;0.92;60.81;103079.81;4943293;28;20035;-69
2024/01/27 03:28:07;;;;;;;16.20;1.20;;;;;;;1.11;60.54;103079.63;4934654;28;20031;-69
2024/01/27 03:30:32;;;;;;;14.90;1.33;;;;;;;0.74;61.72;103084.31;4938238;28;20117;-69
2024/01/27 03:32:58;;;;;;;15.65;1.77;;;;;;;1.20;60.09;103080.78;4933276;28;20490;-70
2024/01/27 03:35:23;;;;;;;12.00;1.60;;;;;;;1.05;60.54;103079.41;4942207;28;20731;-72
2024/01/27 03:37:49;;;;;;;25.45;2.50;;;;;;;0.85;61.38;103073.56;4941692;28;20094;-73
2024/01/27 03:40:15;;;;;;;19.63;1.92;;;;;;;1.02;60.30;103081.03;4933758;28;20054;-72
2024/01/27 03:42:40;;;;;;;6.70;1.25;;;;;;;1.10;60.20;103090.78;4937292;28;20034;-71
2024/01/27 03:45:06;;;;;;;18.10;1.60;;;;;;;0.79;60.87;103093.97;4929975;28;20698;-72
2024/01/27 03:47:31;;;;;;;13.85;2.20;;;;;;;1.11;59.81;103097.66;4937609;28;20039;-72
2024/01/27 03:49:57;;;;;;;10.93;1.20;;;;;;;0.82;60.91;103095.75;4944009;28;20058;-72
2024/01/27 03:52:22;;;;;;;14.25;1.98;;;;;;;0.84;60.80;103102.72;4934413;28;20085;-72
2024/01/27 03:54:48;;;;;;;12.13;1.55;;;;;;;1.12;60.24;103103.69;4937240;28;20066;-72
2024/01/27 03:57:13;;;;;;;9.73;1.00;;;;;;;0.98;60.30;103110.94;4933418;28;20405;-70
2024/01/27 03:59:42;;;;;;;15.75;1.80;;;;;;;1.01;60.29;103116.19;4936271;28;20474;-70
2024/01/27 04:02:08;;;;;;;16.90;1.58;;;;;;;0.84;60.25;103119.88;4938017;28;20034;-70
2024/01/27 04:04:33;;;;;;;12.95;1.52;;;;;;;0.87;60.62;103112.25;4937434;28;20521;-70
2024/01/27 04:06:58;;;;;;;12.15;1.08;;;;;;;1.12;59.11;103103.69;4930981;28;20114;-70
2024/01/27 04:09:24;;;;;;;20.33;1.92;;;;;;;0.88;59.26;103099.44;4938045;28;20494;-70
2024/01/27 04:11:50;;;;;;;6.78;1.02;;;;;;;1.00;59.64;103099.00;4938559;28;20195;-69
2024/01/27 04:14:16;;;;;;;11.55;1.58;;;;;;;0.84;60.33;103105.28;4946288;28;22216;-69
2024/01/27 04:16:41;;;;;;;11.02;1.80;;;;;;;0.66;59.99;103105.50;4936648;28;20046;-70
2024/01/27 04:19:07;;;;;;;10.93;1.73;;;;;;;1.06;59.07;103099.22;4931219;28;20038;-69
2024/01/27 04:21:32;;;;;;;9.48;0.93;;;;;;;0.84;59.75;103105.28;4936324;28;20050;-70
2024/01/27 04:23:58;;;;;;;14.10;1.90;;;;;;;0.87;60.03;103102.81;4936072;28;20038;-70
2024/01/27 04:26:23;;;;;;;16.27;2.35;;;;;;;1.02;59.55;103097.34;4941365;28;20058;-69
2024/01/27 04:28:49;;;;;;;13.90;1.17;;;;;;;0.97;59.18;103104.03;4940748;28;20043;-68
2024/01/27 04:31:14;;;;;;;14.93;0.93;;;;;;;0.93;58.65;103102.19;4934543;28;20179;-69
2024/01/27 04:33:40;;;;;;;16.70;1.83;;;;;;;0.86;59.49;103105.38;4940895;28;20027;-69
2024/01/27 04:36:06;;;;;;;14.88;1.40;;;;;;;0.87;58.38;103096.81;4935572;28;20050;-69
2024/01/27 04:38:32;;;;;;;6.20;1.38;;;;;;;0.81;59.01;103104.28;4939893;28;20035;-69
2024/01/27 04:40:58;;;;;;;14.35;0.57;;;;;;;0.79;59.11;103093.06;4920246;28;20527;-68
2024/01/27 04:43:23;;;;;;;16.00;2.72;;;;;;;0.50;59.63;103098.00;4915956;28;20601;-71
2024/01/27 04:45:49;;;;;;;17.05;1.88;;;;;;;0.64;58.71;103104.56;4929592;28;20039;-72
2024/01/27 04:48:15;;;;;;;11.25;1.50;;;;;;;0.73;58.72;103105.72;4936646;28;20053;-73
2024/01/27 04:50:40;;;;;;;10.18;1.55;;;;;;;0.69;58.46;103095.31;4941613;28;20907;-72
2024/01/27 04:53:06;;;;;;;19.88;1.90;;;;;;;0.51;58.53;103097.19;4936308;28;20042;-72
2024/01/27 04:55:32;;;;;;;26.95;1.65;;;;;;;0.09;59.90;103107.59;4941930;28;20111;-72
2024/01/27 04:58:00;;;;;;;11.93;1.25;;;;;;;0.30;59.50;103106.66;4956941;28;20749;-70
2024/01/27 05:00:27;;;;;;;15.20;1.10;;;;;;;0.06;60.60;103095.50;4937904;28;20039;-70
2024/01/27 05:02:53;;;;;;;7.28;0.63;;;;;;;0.22;59.26;103099.53;4940049;28;20637;-70
2024/01/27 05:05:19;;;;;;;12.98;1.38;;;;;;;0.30;59.21;103104.09;4934914;28;20050;-70
2024/01/27 05:07:44;;;;;;;11.35;1.15;;;;;;;0.25;59.83;103114.22;4942409;28;20910;-70
2024/01/27 05:10:13;;;;;;;19.67;2.00;;;;;;;0.34;59.51;103103.41;4933452;28;20042;-68
2024/01/27 05:12:38;;;;;;;17.40;1.90;;;;;;;0.37;58.93;103103.53;4955062;28;20604;-68
2024/01/27 05:15:04;;;;;;;11.00;1.33;;;;;;;-0.22;61.29;103119.19;4932604;28;20536;-67
2024/01/27 05:17:30;;;;;;;13.73;1.05;;;;;;;0.21;60.45;103113.22;4930520;28;20039;-67
2024/01/27 05:19:57;;;;;;;15.98;1.95;;;;;;;0.26;59.63;103122.00;4938175;28;20066;-68
2024/01/27 05:22:22;;;;;;;15.38;1.17;;;;;;;0.06;60.26;103128.06;4933344;28;21776;-69
2024/01/27 05:24:48;;;;;;;10.80;0.60;;;;;;;0.30;59.96;103116.94;4952166;28;20824;-69
2024/01/27 05:27:13;;;;;;;12.90;2.42;;;;;;;0.25;60.08;103127.94;4933463;28;20622;-69
2024/01/27 05:29:39;;;;;;;14.98;0.93;;;;;;;0.22;60.33;103137.25;4934127;28;20051;-69
2024/01/27 05:32:04;;;;;;;16.90;2.50;;;;;;;0.01;60.55;103129.53;4933186;28;20031;-69
2024/01/27 05:34:30;;;;;;;19.50;2.00;;;;;;;0.06;60.07;103118.63;4940873;28;20062;-69
2024/01/27 05:36:55;;;;;;;12.32;0.75;;;;;;;-0.01;61.06;103124.34;4954370;28;20043;-69
2024/01/27 05:39:21;;;;;;;16.70;0.88;;;;;;;0.11;60.38;103134.25;4931146;28;20050;-69
2024/01/27 05:41:46;;;;;;;12.90;1.75;;;;;;;-0.02;61.02;103134.56;4930050;28;20984;-69
2024/01/27 05:44:12;;;;;;;9.43;1.38;;;;;;;0.18;60.05;103133.66;4935195;28;20066;-69
2024/01/27 05:46:37;;;;;;;18.08;2.38;;;;;;;0.24;60.56;103133.03;4938349;28;20039;-69
2024/01/27 05:49:03;;;;;;;17.98;1.55;;;;;;;0.02;60.42;103144.16;4939241;28;20125;-69
2024/01/27 05:51:32;;;;;;;12.45;3.05;;;;;;;0.10;60.77;103140.22;4932186;28;20034;-69
2024/01/27 05:53:59;;;;;;;12.25;1.25;;;;;;;0.29;59.83;103141.81;4941036;28;20035;-69
2024/01/27 05:56:25;;;;;;;14.73;1.10;;;;;;;0.05;60.45;103147.75;4933410;28;22005;-70
2024/01/27 05:58:51;;;;;;;11.15;2.30;;;;;;;0.12;60.33;103143.69;4938591;28;20027;-70
2024/01/27 06:01:19;;;;;;;12.60;1.40;;;;;;;-0.18;61.32;103148.50;4932336;28;20047;-70
2024/01/27 06:03:45;;;;;;;17.17;1.15;;;;;;;0.27;59.64;103144.31;4954125;28;20035;-69
2024/01/27 06:06:11;;;;;;;11.07;1.38;;;;;;;0.14;60.01;103152.34;4936045;28;20046;-70
2024/01/27 06:08:36;;;;;;;9.65;2.13;;;;;;;-0.17;60.76;103158.84;4938775;28;20406;-70
2024/01/27 06:11:03;;;;;;;4.43;0.77;;;;;;;-0.02;60.66;103160.28;4940995;28;20097;-69
2024/01/27 06:13:29;;;;;;;3.70;1.10;;;;;;;0.09;60.25;103153.88;4932570;28;21524;-68
2024/01/27 06:15:54;;;;;;;10.63;1.60;;;;;;;0.19;59.90;103166.31;4936729;28;20661;-69
2024/01/27 06:18:20;;;;;;;20.45;1.58;;;;;;;0.23;59.55;103157.91;4932621;28;20533;-68
2024/01/27 06:20:46;;;;;;;5.97;0.70;;;;;;;0.23;59.10;103154.41;4950862;28;20577;-66
2024/01/27 06:23:13;;;;;;;5.10;0.73;;;;;;;0.17;59.40;103160.22;4944190;28;20035;-66
2024/01/27 06:25:40;;;;;;;18.33;1.92;;;;;;;0.04;60.35;103169.13;4936310;28;20054;-66
2024/01/27 06:28:05;;;;;;;9.50;1.35;;;;;;;0.15;59.57;103164.41;4945946;28;20043;-67
2024/01/27 06:30:30;;;;;;;20.92;1.48;;;;;;;0.17;59.58;103159.34;4925892;28;20627;-68
2024/01/27 06:32:56;;;;;;;15.10;1.13;;;;;;;0.09;59.74;103161.59;4915972;28;20023;-69
2024/01/27 06:35:22;;;;;;;12.23;0.70;;;;;;;0.06;59.31;103162.34;4910794;28;20604;-67
2024/01/27 06:37:47;;;;;;;11.98;0.57;;;;;;;0.11;59.13;103157.38;4917145;28;20043;-67
2024/01/27 06:40:14;;;;;;;14.85;1.30;;;;;;;-0.19;60.01;103157.00;4914409;28;20039;-71
2024/01/27 06:42:39;;;;;;;12.80;1.90;;;;;;;0.05;59.69;103159.72;4937736;28;20601;-69
2024/01/27 06:45:05;;;;;;;8.77;1.58;;;;;;;0.03;59.57;103159.66;4926439;28;20043;-68
2024/01/27 06:47:31;;;;;;;9.50;1.00;;;;;;;0.08;58.50;103167.56;4933732;28;21437;-72
2024/01/27 06:49:56;;;;;;;13.30;0.98;;;;;;;0.01;58.38;103175.81;4953464;28;20410;-70
2024/01/27 06:52:22;;;;;;;7.60;1.00;;;;;;;-0.02;58.58;103191.13;4933511;28;20430;-67
2024/01/27 06:54:47;;;;;;;9.95;1.00;;;;;;;-0.03;59.42;103185.13;4935993;28;20159;-68
2024/01/27 06:57:23;;;;;;;8.60;0.93;;;;;;;-0.02;58.55;103186.00;4936745;28;20035;-67
2024/01/27 06:59:52;;;;;;;9.27;1.75;;;;;;;-0.08;58.55;103180.59;4935361;28;20043;-68
2024/01/27 07:02:22;;;;;;;9.70;1.48;;;;;;;-0.08;58.80;103178.91;4924079;28;20035;-69
2024/01/27 07:04:48;;;;;;;8.93;1.10;;;;;;;-0.49;60.92;103180.59;4934917;28;20073;-68
2024/01/27 07:07:13;;;;;;;5.93;0.80;;;;;;;-0.16;59.74;103177.72;4952719;28;20643;-65
2024/01/27 07:09:39;;;;;;;11.55;0.70;;;;;;;-0.15;59.59;103184.59;4964461;28;20039;-71
2024/01/27 07:12:05;;;;;;;11.43;1.45;;;;;;;-0.43;60.70;103178.31;4941040;28;20271;-71
2024/01/27 07:14:31;;;;;;;11.82;1.15;;;;;;;-0.11;59.71;103180.47;4946386;28;20041;-71
2024/01/27 07:16:56;;;;;;;14.57;1.80;;;;;;;-0.21;59.69;103184.38;4937659;28;20022;-69
2024/01/27 07:19:22;;;;;;;10.60;2.15;;;;;;;-0.07;59.86;103188.38;4930163;28;20373;-71
2024/01/27 07:21:47;;;;;;;14.07;1.98;;;;;;;-0.14;60.19;103187.25;4936780;28;20061;-71
2024/01/27 07:24:13;;;;;;;10.18;1.52;;;;;;;-0.28;60.25;103193.50;4953358;28;20042;-71
2024/01/27 07:26:39;;;;;;;15.70;1.58;;;;;;;-0.30;60.66;103195.13;4929546;28;20042;-72
2024/01/27 07:29:04;;;;;;;13.95;0.93;;;;;;;-0.23;60.59;103199.72;4950559;28;20073;-69
2024/01/27 07:31:31;;;;;;;13.25;1.70;;;;;;;-0.21;60.60;103198.09;4926338;28;20066;-65
2024/01/27 07:33:56;;;;;;;15.73;1.33;;;;;;;-0.62;61.86;103192.03;4941478;28;20068;-70
2024/01/27 07:36:22;;;;;;;11.60;1.38;;;;;;;-0.19;60.65;103196.47;4929319;28;20652;-68
2024/01/27 07:38:47;;;;;;;20.15;1.77;;;;;;;-0.04;60.19;103200.47;4938177;28;20035;-70
2024/01/27 07:41:13;;;;;;;13.90;1.33;;;;;;;-0.01;60.26;103209.19;4936673;28;20708;-70
2024/01/27 07:43:38;;;;;;;8.23;1.08;;;;;;;-0.04;61.33;103214.19;4928193;28;20445;-66
2024/01/27 07:46:04;;;;;;;13.73;1.00;;;;;;;-0.37;61.88;103213.66;4934103;28;20723;-70
2024/01/27 07:48:30;;;;;;;14.77;1.30;;;;;;;0.06;61.20;103218.06;4928644;28;20046;-69
2024/01/27 07:50:56;;;;;;;8.73;1.88;;;;;;;0.06;60.70;103228.34;4910995;28;20063;-68
2024/01/27 07:53:22;;;;;;;11.77;1.13;;;;;;;0.21;60.58;103216.09;4906462;28;20420;-67
2024/01/27 07:55:48;;;;;;;13.45;1.13;;;;;;;0.21;60.86;103226.41;4917681;28;20051;-66
2024/01/27 07:58:13;;;;;;;9.50;0.75;;;;;;;0.51;59.99;103231.00;4900965;28;20122;-73
2024/01/27 08:00:39;;;;;;;7.55;1.27;;;;;;;0.75;59.79;103230.19;4921530;28;20602;-73
2024/01/27 08:03:05;;;;;;;13.23;1.65;;;;;;;1.15;58.98;103230.03;4920692;28;20045;-67
2024/01/27 08:05:30;;;;;;;10.45;1.63;;;;;;;1.44;58.24;103225.97;4928556;28;20043;-70
2024/01/27 08:07:56;;;;;;;11.18;1.58;;;;;;;1.34;57.54;103236.72;4922778;28;20023;-73
2024/01/27 08:10:22;;;;;;;5.30;0.77;;;;;;;1.25;57.46;103226.97;4914970;28;20043;-69
2024/01/27 08:12:48;;;;;;;16.58;1.92;;;;;;;1.28;57.50;103228.78;4921590;28;20035;-74
2024/01/27 08:15:13;;;;;;;12.65;1.20;;;;;;;0.99;57.45;103246.63;4921467;28;20040;-69
2024/01/27 08:17:39;;;;;;;8.45;0.57;;;;;;;0.98;58.18;103247.41;4914665;28;20031;-71
2024/01/27 08:20:05;;;;;;;14.43;1.25;;;;;;;1.35;58.21;103243.66;4919805;28;20465;-68
2024/01/27 08:22:31;;;;;;;4.70;0.85;;;;;;;1.81;57.15;103254.75;4909442;28;20521;-67
2024/01/27 08:24:57;;;;;;;7.40;0.80;;;;;;;1.97;56.01;103240.66;4913374;28;20078;-68
2024/01/27 08:27:22;;;;;;;8.55;2.50;;;;;;;2.63;54.46;103243.69;4918315;28;20127;-67
2024/01/27 08:29:48;;;;;;;7.15;0.98;;;;;;;3.33;54.81;103242.34;4917944;28;20050;-69
2024/01/27 08:32:14;;;;;;;10.70;1.80;;;;;;;3.89;52.28;103244.72;4920185;28;20039;-67
2024/01/27 08:34:39;;;;;;;7.30;1.48;;;;;;;3.95;50.65;103242.28;4911140;28;20065;-67
2024/01/27 08:37:17;;;;;;;12.55;2.35;;;;;;;4.31;50.07;103241.44;4914685;28;20268;-66
2024/01/27 08:39:43;;;;;;;16.00;1.60;;;;;;;5.50;49.20;103246.63;4914342;28;20052;-71
2024/01/27 08:42:09;;;;;;;13.05;1.58;;;;;;;5.54;48.34;103245.84;4917990;28;20075;-71
2024/01/27 08:44:34;;;;;;;12.48;1.48;;;;;;;6.14;47.70;103231.34;4914256;28;20054;-71
2024/01/27 08:47:00;;;;;;;8.48;0.80;;;;;;;5.60;45.21;103239.06;4916524;28;20735;-70
2024/01/27 08:49:25;;;;;;;4.43;0.70;;;;;;;5.37;47.36;103250.69;4945016;28;20984;-71
2024/01/27 08:51:51;;;;;;;8.40;0.75;;;;;;;4.66;46.85;103251.78;4923926;28;20027;-70
2024/01/27 08:54:17;;;;;;;10.85;1.33;;;;;;;4.22;47.49;103260.22;4919991;28;20035;-69
2024/01/27 08:56:42;;;;;;;9.82;0.95;;;;;;;3.47;50.12;103270.28;4916724;28;20045;-68
2024/01/27 08:59:08;;;;;;;9.20;1.23;;;;;;;3.77;49.03;103272.88;4914197;28;20031;-70
2024/01/27 09:01:33;;;;;;;8.20;1.77;;;;;;;2.68;51.88;103277.41;4913375;28;20043;-66
2024/01/27 09:04:00;;;;;;;8.68;1.77;;;;;;;3.35;52.88;103276.00;4920919;28;20392;-69
2024/01/27 09:06:26;;;;;;;11.27;1.35;;;;;;;3.90;49.70;103264.59;4920250;28;20044;-68
2024/01/27 09:08:51;;;;;;;6.47;1.02;;;;;;;4.21;51.00;103275.75;4913202;28;20756;-70
2024/01/27 09:11:17;;;;;;;7.20;2.30;;;;;;;4.64;49.33;103267.28;4913870;28;21088;-66
2024/01/27 09:13:45;;;;;;;8.35;1.45;;;;;;;5.09;46.88;103257.94;4912760;28;20542;-71
2024/01/27 09:16:13;;;;;;;8.40;1.77;;;;;;;4.63;49.64;103281.09;4933291;28;20102;-70
2024/01/27 09:18:39;;;;;;;9.90;0.98;;;;;;;4.56;48.64;103275.69;4914868;28;20040;-68
2024/01/27 09:21:04;;;;;;;9.48;0.90;;;;;;;4.53;48.94;103267.88;4920570;28;20050;-67
2024/01/27 09:23:30;;;;;;;9.77;1.90;;;;;;;4.67;47.92;103274.22;4917225;28;20039;-66
2024/01/27 09:25:55;;;;;;;13.70;1.05;;;;;;;4.37;48.27;103267.50;4919434;28;20499;-66
2024/01/27 09:28:21;;;;;;;9.10;1.38;;;;;;;4.77;47.58;103268.44;4922070;28;20046;-66
2024/01/27 09:30:46;;;;;;;14.07;0.77;;;;;;;4.53;50.42;103273.06;4912526;28;20854;-65
2024/01/27 09:33:12;;;;;;;11.70;1.67;;;;;;;4.56;48.89;103268.81;4919318;28;20426;-66
2024/01/27 09:35:38;;;;;;;9.40;1.00;;;;;;;4.68;50.81;103268.22;4924777;28;20137;-66
2024/01/27 09:38:05;;;;;;;12.05;2.63;;;;;;;4.37;49.11;103267.50;4919919;28;20031;-67
2024/01/27 09:40:31;;;;;;;10.73;1.00;;;;;;;4.63;50.59;103265.53;4926014;28;20035;-66
2024/01/27 09:42:59;;;;;;;12.95;1.55;;;;;;;4.75;50.62;103270.13;4935786;28;20037;-66
2024/01/27 09:45:25;;;;;;;5.22;0.98;;;;;;;4.95;49.50;103261.97;4936392;28;20440;-66
2024/01/27 09:47:51;;;;;;;13.20;1.48;;;;;;;5.36;47.94;103269.72;4933864;28;20531;-67
2024/01/27 09:50:18;;;;;;;10.52;2.65;;;;;;;5.62;46.88;103275.44;4928696;28;20052;-66
2024/01/27 09:52:44;;;;;;;9.77;1.80;;;;;;;5.45;47.56;103270.75;4917359;28;20126;-67
2024/01/27 09:55:10;;;;;;;6.95;0.93;;;;;;;5.15;48.04;103262.38;4917661;28;20047;-66
2024/01/27 09:57:39;;;;;;;13.60;1.33;;;;;;;5.69;48.98;103269.50;4915592;28;20031;-66
2024/01/27 10:00:15;;;;;;;5.15;0.98;;;;;;;5.45;48.34;103282.88;4898931;28;20097;-66
2024/01/27 10:02:42;;;;;;;14.75;1.70;;;;;;;5.94;48.13;103278.59;4888846;28;20049;-65
2024/01/27 10:05:09;;;;;;;7.63;1.27;;;;;;;5.50;47.64;103283.81;4896008;28;20122;-65
2024/01/27 10:07:35;;;;;;;7.63;0.55;;;;;;;5.55;47.51;103281.34;4892441;28;20419;-66
2024/01/27 10:10:00;;;;;;;19.13;2.35;;;;;;;5.16;49.23;103280.53;4891718;28;20054;-67
2024/01/27 10:12:27;;;;;;;19.83;1.88;;;;;;;5.24;48.84;103280.72;4916158;28;20066;-68
2024/01/27 10:14:53;;;;;;;12.32;2.17;;;;;;;5.60;48.59;103296.13;4913097;28;20044;-67
2024/01/27 10:17:23;;;;;;;13.18;1.75;;;;;;;5.01;50.01;103281.09;4923868;28;20521;-66
2024/01/27 10:20:00;;;;;;;10.90;2.47;;;;;;;4.33;50.48;103291.56;4910021;28;20095;-67
2024/01/27 10:22:27;;;;;;;16.08;1.10;;;;;;;4.46;51.60;103282.38;4917403;28;20036;-67
2024/01/27 10:24:52;;;;;;;11.40;1.13;;;;;;;4.90;49.97;103281.69;4912554;28;20039;-68
2024/01/27 10:27:18;;;;;;;14.95;1.65;;;;;;;5.16;49.05;103277.94;4916557;28;20518;-66
2024/01/27 10:29:57;;;;;;;15.43;1.55;;;;;;;4.32;51.65;103294.09;4925878;28;20758;-67
2024/01/27 10:32:23;;;;;;;8.88;1.38;;;;;;;5.19;49.60;103278.03;4914482;28;20035;-65
2024/01/27 10:35:08;;;;;;;8.95;2.22;;;;;;;5.13;49.70;103275.31;4903242;28;20050;-65
2024/01/27 10:37:34;;;;;;;8.32;1.10;;;;;;;6.36;46.71;103269.81;4916378;28;20055;-66
2024/01/27 10:40:04;;;;;;;9.40;1.35;;;;;;;6.13;47.62;103277.22;4909679;28;20143;-67
2024/01/27 10:42:31;;;;;;;5.95;1.50;;;;;;;6.45;47.44;103295.94;4913998;28;20135;-67
2024/01/27 10:45:00;;;;;;;7.07;1.45;;;;;;;6.20;47.07;103298.97;4922602;28;21055;-68
2024/01/27 10:47:30;;;;;;;9.68;2.33;;;;;;;6.04;48.47;103309.09;4931853;28;20046;-65
2024/01/27 10:49:57;;;;;;;7.50;0.82;;;;;;;5.55;49.25;103308.16;4909815;28;20032;-68
2024/01/27 10:52:30;;;;;;;15.48;1.77;;;;;;;5.39;49.34;103322.53;4929972;28;20070;-66
2024/01/27 10:55:03;;;;;;;7.53;0.95;;;;;;;5.14;51.46;103331.47;4907558;28;20039;-68
2024/01/27 10:57:33;;;;;;;13.23;1.25;;;;;;;5.33;50.70;103324.13;4912863;28;20138;-69
2024/01/27 11:00:00;;;;;;;10.13;1.67;;;;;;;5.72;49.97;103330.94;4911401;28;20039;-69
2024/01/27 11:02:35;;;;;;;11.60;1.50;;;;;;;5.79;48.80;103332.81;4914206;28;20035;-67
2024/01/27 11:05:04;;;;;;;14.95;1.73;;;;;;;6.34;48.46;103322.59;4910016;28;20779;-69
2024/01/27 11:07:35;;;;;;;10.10;1.83;;;;;;;5.71;49.58;103331.81;4910276;28;21641;-66
2024/01/27 11:10:00;;;;;;;10.52;1.52;;;;;;;5.80;49.83;103338.06;4911691;28;20735;-69
2024/01/27 11:12:26;;;;;;;13.13;1.85;;;;;;;5.74;49.96;103339.66;4917240;28;20038;-66
2024/01/27 11:14:52;;;;;;;22.70;3.13;;;;;;;5.47;51.61;103330.47;4915473;28;20577;-66
2024/01/27 11:17:21;;;;;;;14.43;1.40;;;;;;;5.30;50.32;103337.00;4915063;28;20122;-68
2024/01/27 11:19:47;;;;;;;10.48;1.60;;;;;;;5.81;50.30;103336.31;4906021;28;20085;-66
2024/01/27 11:22:27;;;;;;;13.32;1.35;;;;;;;5.77;50.26;103340.59;4917163;28;20039;-69